Time;durP1;ratioP1;P1;durP2;ratioP2;P2;SDS_P1;SDS_P2;PMS_P1;PMS_P2;Temp;Humidity;BMP_temperature;BMP_pressure;BME280_temperature;BME280_humidity;BME280_pressure;Samples;Min_cycle;Max_cycle;Signal;HPM_P1;HPM_P2
2022/04/16 00:01:58;;;;;;;18.75;5.22;;;;;;;4.23;100.00;101961.97;4984018;28;20050;-84
2022/04/16 00:04:23;;;;;;;11.93;4.53;;;;;;;4.54;100.00;101986.47;4979985;28;20365;-84
2022/04/16 00:06:49;;;;;;;12.10;3.95;;;;;;;4.74;100.00;101990.44;4999478;28;20042;-82
2022/04/16 00:09:14;;;;;;;16.95;5.65;;;;;;;4.78;100.00;101986.56;4989890;28;20072;-84
2022/04/16 00:11:40;;;;;;;14.40;7.30;;;;;;;4.80;100.00;101982.00;5002939;28;20045;-83
2022/04/16 00:14:05;;;;;;;18.02;6.38;;;;;;;4.68;100.00;101966.88;4984844;28;20384;-85
2022/04/16 00:16:32;;;;;;;12.27;6.32;;;;;;;4.73;100.00;101978.06;4974285;28;20091;-85
2022/04/16 00:18:57;;;;;;;11.00;4.70;;;;;;;4.61;100.00;101983.28;4981130;28;20478;-83
2022/04/16 00:21:24;;;;;;;8.85;5.28;;;;;;;4.43;100.00;101963.25;4972614;28;20034;-83
2022/04/16 00:23:50;;;;;;;12.15;5.18;;;;;;;4.64;100.00;101987.56;5008207;28;20081;-82
2022/04/16 00:26:16;;;;;;;12.23;4.95;;;;;;;4.66;100.00;101988.31;4991273;28;20026;-84
2022/04/16 00:28:41;;;;;;;16.70;5.03;;;;;;;4.66;100.00;101987.44;4968042;28;20059;-84
2022/04/16 00:31:07;;;;;;;9.40;4.05;;;;;;;4.58;100.00;101980.00;4999344;28;20562;-84
2022/04/16 00:33:33;;;;;;;10.25;3.75;;;;;;;4.48;100.00;101971.78;4969210;28;20038;-84
2022/04/16 00:36:02;;;;;;;10.98;3.47;;;;;;;4.39;100.00;101969.75;5006463;28;20060;-85
2022/04/16 00:38:28;;;;;;;10.43;3.85;;;;;;;4.02;100.00;101950.13;4954584;28;20030;-84
2022/04/16 00:40:53;;;;;;;11.48;3.50;;;;;;;3.94;100.00;101964.81;5004026;28;20360;-85
2022/04/16 00:43:23;;;;;;;9.35;3.83;;;;;;;3.73;100.00;101972.41;4997195;28;20336;-84
2022/04/16 00:45:49;;;;;;;7.43;3.72;;;;;;;3.72;100.00;101975.16;4972754;28;20056;-84
2022/04/16 00:48:14;;;;;;;10.27;4.68;;;;;;;3.64;100.00;101962.38;4967449;28;20407;-85
2022/04/16 00:50:40;;;;;;;15.00;4.38;;;;;;;3.65;100.00;101974.72;4988925;28;20061;-84
2022/04/16 00:53:06;;;;;;;14.85;5.60;;;;;;;3.62;100.00;101980.22;4964804;28;20034;-84
2022/04/16 00:55:37;;;;;;;9.48;4.20;;;;;;;3.71;100.00;101990.28;4969529;28;20048;-85
2022/04/16 00:58:02;;;;;;;13.18;4.03;;;;;;;3.68;100.00;101979.00;4986065;28;20543;-84
2022/04/16 01:00:28;;;;;;;10.77;3.83;;;;;;;3.67;100.00;101985.25;4973214;28;20076;-84
2022/04/16 01:02:55;;;;;;;11.18;3.95;;;;;;;3.59;100.00;101995.53;4985084;28;20057;-85
2022/04/16 01:05:21;;;;;;;12.45;3.58;;;;;;;3.38;100.00;101992.47;4994165;28;20028;-84
2022/04/16 01:07:57;;;;;;;6.47;3.50;;;;;;;3.28;100.00;101985.09;5008735;28;20115;-85
2022/04/16 01:10:29;;;;;;;8.00;3.45;;;;;;;3.31;100.00;101992.03;4973113;28;20128;-84
2022/04/16 01:13:03;;;;;;;5.88;2.88;;;;;;;3.27;100.00;101995.81;4993870;28;20033;-85
2022/04/16 01:15:32;;;;;;;7.30;3.20;;;;;;;3.23;100.00;101996.97;4988119;28;20021;-84
2022/04/16 01:17:59;;;;;;;6.78;2.90;;;;;;;3.24;100.00;101991.56;4969288;28;20030;-84
2022/04/16 01:20:24;;;;;;;7.55;3.72;;;;;;;3.45;100.00;101994.63;5008978;28;20030;-84
2022/04/16 01:22:56;;;;;;;12.82;3.50;;;;;;;4.01;100.00;101980.34;4975544;28;20530;-86
2022/04/16 01:25:26;;;;;;;12.70;3.28;;;;;;;4.26;100.00;101998.16;4973349;28;20030;-84
2022/04/16 01:27:55;;;;;;;12.57;3.88;;;;;;;4.39;100.00;101996.38;4990042;28;20242;-84
2022/04/16 01:30:22;;;;;;;10.40;3.58;;;;;;;4.57;100.00;101992.44;4955204;28;20029;-84
2022/04/16 01:32:48;;;;;;;11.18;3.38;;;;;;;4.63;100.00;101968.06;5005216;28;20030;-84
2022/04/16 01:35:15;;;;;;;11.68;4.07;;;;;;;4.57;100.00;101943.66;4990572;28;20034;-84
2022/04/16 01:37:41;;;;;;;9.07;4.45;;;;;;;4.67;100.00;101958.03;4987716;28;20038;-83
2022/04/16 01:40:09;;;;;;;10.75;3.88;;;;;;;4.72;100.00;101993.19;5003028;28;20037;-83
2022/04/16 01:42:35;;;;;;;9.15;4.15;;;;;;;4.63;100.00;101988.50;4988903;28;20042;-85
2022/04/16 01:45:06;;;;;;;13.15;4.50;;;;;;;4.72;100.00;101997.69;5003412;28;20053;-83
2022/04/16 01:47:36;;;;;;;15.63;4.70;;;;;;;4.68;100.00;101991.69;4992750;28;20034;-84
2022/04/16 01:50:07;;;;;;;10.75;4.57;;;;;;;4.54;100.00;101991.81;4990486;28;20033;-84
2022/04/16 01:52:32;;;;;;;10.05;5.25;;;;;;;4.44;100.00;101980.94;4995655;28;20065;-85
2022/04/16 01:55:00;;;;;;;10.60;3.83;;;;;;;4.54;100.00;101994.47;4979288;28;20041;-83
2022/04/16 01:57:26;;;;;;;16.10;5.22;;;;;;;4.48;100.00;102000.25;4988224;28;20494;-84
2022/04/16 01:59:52;;;;;;;10.43;4.28;;;;;;;4.43;100.00;102003.22;4989739;28;20061;-85
2022/04/16 02:02:19;;;;;;;13.73;4.90;;;;;;;4.37;100.00;101998.31;4973141;28;20083;-84
2022/04/16 02:04:45;;;;;;;12.85;4.22;;;;;;;4.32;100.00;101997.78;4991182;28;20038;-84
2022/04/16 02:07:11;;;;;;;19.90;5.10;;;;;;;4.31;100.00;101999.59;5006480;28;20080;-83
2022/04/16 02:09:37;;;;;;;10.27;4.25;;;;;;;4.21;100.00;101998.50;5006694;28;20041;-84
2022/04/16 02:12:03;;;;;;;12.38;4.60;;;;;;;4.15;100.00;102001.56;4989642;28;20467;-85
2022/04/16 02:14:29;;;;;;;16.48;4.78;;;;;;;4.04;100.00;101993.44;4977407;28;20033;-84
2022/04/16 02:16:54;;;;;;;12.68;5.45;;;;;;;4.03;100.00;101995.28;4988665;28;20038;-84
2022/04/16 02:19:20;;;;;;;12.10;5.03;;;;;;;4.00;100.00;101991.97;4986808;28;20029;-84
2022/04/16 02:21:46;;;;;;;14.90;4.70;;;;;;;3.96;100.00;101992.16;4994010;28;20049;-84
2022/04/16 02:24:13;;;;;;;7.72;3.95;;;;;;;3.81;100.00;101971.91;4974550;28;20168;-85
2022/04/16 02:26:42;;;;;;;16.85;5.18;;;;;;;3.86;100.00;101976.91;5006102;28;20121;-86
2022/04/16 02:29:10;;;;;;;18.77;5.57;;;;;;;3.69;100.00;101970.91;4987939;28;20121;-85
2022/04/16 02:31:39;;;;;;;13.60;5.43;;;;;;;3.36;100.00;101926.13;5004602;28;20383;-84
2022/04/16 02:34:05;;;;;;;10.05;4.85;;;;;;;3.73;100.00;101982.19;4987728;28;20037;-83
2022/04/16 02:36:34;;;;;;;14.57;4.22;;;;;;;3.70;100.00;101979.72;4991001;28;20057;-85
2022/04/16 02:39:00;;;;;;;11.98;5.05;;;;;;;3.74;100.00;101983.91;4973044;28;20113;-85
2022/04/16 02:41:26;;;;;;;12.35;4.55;;;;;;;3.62;100.00;101961.63;4982076;28;20065;-83
2022/04/16 02:43:55;;;;;;;16.13;4.88;;;;;;;3.71;100.00;101973.47;4983418;28;20121;-85
2022/04/16 02:49:06;;;;;;;13.60;4.50;;;;;;;3.73;100.00;101972.41;4983988;28;21087;-84
2022/04/16 02:51:32;;;;;;;16.27;4.68;;;;;;;3.58;100.00;101949.47;4984622;28;20042;-85
2022/04/16 02:53:58;;;;;;;15.45;5.07;;;;;;;3.75;100.00;101966.97;5001710;28;20042;-84
2022/04/16 02:56:24;;;;;;;8.20;3.75;;;;;;;3.68;100.00;101961.22;4984522;28;20032;-84
2022/04/16 02:58:49;;;;;;;14.68;4.78;;;;;;;3.81;100.00;101957.72;4983146;28;20022;-80
2022/04/16 03:01:15;;;;;;;10.65;3.95;;;;;;;3.88;100.00;101953.72;4984998;28;20026;-83
2022/04/16 03:03:41;;;;;;;9.60;3.42;;;;;;;3.93;100.00;101951.59;5000168;28;20074;-83
2022/04/16 03:06:07;;;;;;;14.30;5.55;;;;;;;3.95;100.00;101955.88;4998079;28;20033;-86
2022/04/16 03:08:32;;;;;;;15.52;4.85;;;;;;;4.01;100.00;101965.25;4970295;28;22240;-84
2022/04/16 03:10:58;;;;;;;6.90;4.97;;;;;;;4.00;100.00;101957.38;5002821;28;20117;-85
2022/04/16 03:13:23;;;;;;;13.88;4.43;;;;;;;3.92;100.00;101952.56;4974143;28;20244;-84
2022/04/16 03:18:33;;;;;;;13.73;5.45;;;;;;;3.86;100.00;101943.16;5016432;28;20048;-84
2022/04/16 03:21:00;;;;;;;9.98;3.95;;;;;;;3.87;100.00;101946.69;4975129;28;20034;-84
2022/04/16 03:23:25;;;;;;;13.88;3.85;;;;;;;3.86;100.00;101927.19;4975536;28;20044;-84
2022/04/16 03:25:53;;;;;;;16.90;5.05;;;;;;;3.94;100.00;101927.56;5005039;28;20034;-84
2022/04/16 03:28:19;;;;;;;9.50;2.95;;;;;;;4.06;100.00;101928.53;5009730;28;20104;-84
2022/04/16 03:30:45;;;;;;;15.18;4.20;;;;;;;4.08;100.00;101918.63;4973542;28;20053;-84
2022/04/16 03:33:11;;;;;;;17.05;4.57;;;;;;;4.01;100.00;101914.66;5009164;28;20061;-84
2022/04/16 03:35:37;;;;;;;5.85;3.65;;;;;;;4.03;100.00;101909.25;4992013;28;20487;-84
2022/04/16 03:38:02;;;;;;;7.72;3.47;;;;;;;4.01;100.00;101901.38;4992864;28;20525;-84
2022/04/16 03:40:28;;;;;;;13.30;3.70;;;;;;;4.11;100.00;101902.44;4977824;28;20087;-85
2022/04/16 03:43:00;;;;;;;9.80;4.20;;;;;;;4.19;100.00;101899.25;4977966;28;20114;-83
2022/04/16 03:45:30;;;;;;;12.95;4.50;;;;;;;4.31;100.00;101890.41;4994076;28;20045;-84
2022/04/16 03:47:57;;;;;;;16.10;4.00;;;;;;;4.32;100.00;101881.47;4994222;28;20045;-83
2022/04/16 03:50:24;;;;;;;12.60;4.28;;;;;;;4.47;100.00;101866.19;4977352;28;20037;-84
2022/04/16 03:52:51;;;;;;;14.32;3.78;;;;;;;4.50;100.00;101870.44;4993242;28;20038;-83
2022/04/16 04:00:47;;;;;;;12.55;4.00;;;;;;;4.60;100.00;101875.03;5007849;28;20080;-83
2022/04/16 04:03:13;;;;;;;13.60;4.30;;;;;;;4.62;100.00;101874.91;4988139;28;20033;-83
2022/04/16 04:05:39;;;;;;;11.88;3.58;;;;;;;4.55;100.00;101877.19;5003779;28;21537;-83
2022/04/16 04:08:06;;;;;;;12.80;3.67;;;;;;;4.52;100.00;101881.84;4989076;28;20034;-83
2022/04/16 04:10:32;;;;;;;16.25;3.25;;;;;;;4.50;100.00;101881.97;4993800;28;20071;-83
2022/04/16 04:12:58;;;;;;;14.60;3.40;;;;;;;4.45;100.00;101888.59;4973253;28;20029;-82
2022/04/16 04:15:24;;;;;;;10.70;3.40;;;;;;;4.48;100.00;101886.56;4990497;28;20036;-83
2022/04/16 04:17:50;;;;;;;18.20;3.55;;;;;;;4.55;100.00;101878.97;5004880;28;20045;-84
2022/04/16 04:20:16;;;;;;;22.52;3.78;;;;;;;4.53;100.00;101870.25;4988149;28;20045;-83
2022/04/16 04:22:42;;;;;;;9.85;3.72;;;;;;;4.60;100.00;101875.03;4994806;28;20065;-82
2022/04/16 04:25:10;;;;;;;14.48;3.65;;;;;;;4.49;100.00;101852.78;4989137;28;20033;-83
2022/04/16 04:27:36;;;;;;;11.18;3.08;;;;;;;4.67;100.00;101872.78;5009526;28;20045;-82
2022/04/16 04:30:02;;;;;;;7.88;3.00;;;;;;;4.67;100.00;101869.28;4971587;28;20057;-83
2022/04/16 04:32:28;;;;;;;9.55;3.47;;;;;;;4.64;100.00;101867.66;4991151;28;20036;-84
2022/04/16 04:34:54;;;;;;;13.80;3.78;;;;;;;4.71;100.00;101857.41;4972363;28;20124;-84
2022/04/16 04:37:20;;;;;;;22.33;5.18;;;;;;;4.65;100.00;101847.22;4996965;28;20033;-83
2022/04/16 04:39:45;;;;;;;18.35;3.20;;;;;;;4.61;100.00;101834.13;4998506;28;20034;-84
2022/04/16 04:42:11;;;;;;;9.80;2.65;;;;;;;4.58;100.00;101836.16;5029937;28;20034;-82
2022/04/16 04:44:37;;;;;;;14.88;3.53;;;;;;;4.48;100.00;101848.44;5028418;28;20038;-83
2022/04/16 04:47:03;;;;;;;8.90;2.85;;;;;;;4.41;100.00;101840.84;5016075;28;20040;-84
2022/04/16 04:49:29;;;;;;;8.25;2.50;;;;;;;4.32;100.00;101844.19;4974969;28;20030;-82
2022/04/16 04:51:55;;;;;;;10.75;2.60;;;;;;;4.30;100.00;101845.25;5002842;28;20041;-85
2022/04/16 04:54:21;;;;;;;12.00;2.72;;;;;;;4.28;100.00;101839.19;4983560;28;20068;-83
2022/04/16 04:56:47;;;;;;;11.60;2.85;;;;;;;4.33;100.00;101845.03;4998950;28;20076;-85
2022/04/16 04:59:12;;;;;;;13.85;2.83;;;;;;;4.39;100.00;101850.78;4976629;28;20038;-84
2022/04/16 05:01:40;;;;;;;17.02;3.45;;;;;;;4.39;100.00;101849.91;4976463;28;20116;-84
2022/04/16 05:04:06;;;;;;;13.85;2.88;;;;;;;4.45;100.00;101856.63;4986994;28;20037;-84
2022/04/16 05:06:31;;;;;;;15.05;3.13;;;;;;;4.41;100.00;101854.16;4975430;28;20068;-84
2022/04/16 05:08:57;;;;;;;8.10;3.05;;;;;;;4.53;100.00;101864.94;4958163;28;20037;-83
2022/04/16 05:11:22;;;;;;;5.72;1.80;;;;;;;4.61;100.00;101859.91;4989627;28;20056;-85
2022/04/16 05:13:48;;;;;;;9.25;2.40;;;;;;;4.69;100.00;101859.34;5002568;28;20038;-83
2022/04/16 05:16:14;;;;;;;8.07;2.38;;;;;;;4.80;100.00;101865.59;4993108;28;20037;-84
2022/04/16 05:18:41;;;;;;;10.95;2.50;;;;;;;4.86;100.00;101848.31;5009407;28;20045;-84
2022/04/16 05:21:06;;;;;;;5.30;1.85;;;;;;;4.87;100.00;101854.47;5007618;28;20129;-83
2022/04/16 05:23:32;;;;;;;11.02;2.80;;;;;;;4.95;100.00;101860.09;4979642;28;20113;-84
2022/04/16 05:25:58;;;;;;;11.65;2.58;;;;;;;4.94;100.00;101848.59;5015642;28;20033;-84
2022/04/16 05:28:23;;;;;;;11.48;2.75;;;;;;;5.03;100.00;101863.94;4982575;28;20037;-83
2022/04/16 05:30:54;;;;;;;13.27;2.95;;;;;;;4.94;100.00;101864.59;4974408;28;20046;-84
2022/04/16 05:36:04;;;;;;;11.93;3.08;;;;;;;4.88;100.00;101842.88;4997325;28;20040;-84
2022/04/16 05:38:30;;;;;;;8.00;3.20;;;;;;;4.92;100.00;101871.88;4985693;28;20034;-83
2022/04/16 05:40:59;;;;;;;8.93;2.90;;;;;;;4.93;100.00;101875.38;5002003;28;20057;-82
2022/04/16 05:43:24;;;;;;;10.18;2.83;;;;;;;4.90;100.00;101862.28;4999366;28;20491;-83
2022/04/16 05:45:50;;;;;;;8.98;2.45;;;;;;;4.97;100.00;101853.69;5007756;28;20207;-83
2022/04/16 05:48:16;;;;;;;14.05;4.05;;;;;;;5.09;100.00;101865.28;4991132;28;20029;-83
2022/04/16 05:50:41;;;;;;;17.67;3.35;;;;;;;5.14;100.00;101863.13;5000312;28;20045;-83
2022/04/16 05:53:09;;;;;;;16.23;3.28;;;;;;;5.22;100.00;101867.91;5010716;28;20044;-82
2022/04/16 05:55:36;;;;;;;10.38;3.90;;;;;;;5.34;100.00;101863.47;4961084;28;20068;-82
2022/04/16 05:58:01;;;;;;;9.25;2.92;;;;;;;5.47;100.00;101864.25;4990762;28;20096;-82
2022/04/16 06:00:27;;;;;;;8.18;2.03;;;;;;;5.50;100.00;101869.34;5006683;28;20034;-82
2022/04/16 06:02:53;;;;;;;7.82;2.47;;;;;;;5.76;100.00;101877.19;4996326;28;20029;-83
2022/04/16 06:05:21;;;;;;;8.50;2.78;;;;;;;5.83;100.00;101873.09;4994176;28;20092;-83
2022/04/16 06:07:46;;;;;;;12.02;2.60;;;;;;;5.92;100.00;101862.53;4996316;28;20550;-83
2022/04/16 06:10:12;;;;;;;12.38;2.63;;;;;;;6.10;100.00;101876.31;5000068;28;20110;-85
2022/04/16 06:12:37;;;;;;;13.18;2.63;;;;;;;6.21;100.00;101872.81;4974803;28;20125;-83
2022/04/16 06:15:03;;;;;;;8.60;3.08;;;;;;;6.27;100.00;101875.03;5002610;28;20525;-83
2022/04/16 06:17:29;;;;;;;7.63;2.13;;;;;;;6.35;100.00;101869.94;4962389;28;20475;-83
2022/04/16 06:19:54;;;;;;;12.60;2.90;;;;;;;6.41;100.00;101854.38;4978876;28;20046;-83
2022/04/16 06:22:20;;;;;;;13.43;2.40;;;;;;;6.70;100.00;101868.09;5020359;28;20117;-83
2022/04/16 06:24:46;;;;;;;11.32;2.55;;;;;;;6.70;100.00;101857.41;5008955;28;20091;-84
2022/04/16 06:27:12;;;;;;;10.73;2.50;;;;;;;6.81;100.00;101870.75;5009040;28;20034;-83
2022/04/16 06:29:38;;;;;;;12.93;2.38;;;;;;;6.82;100.00;101859.91;4993364;28;20288;-83
2022/04/16 06:32:04;;;;;;;6.78;2.00;;;;;;;7.01;100.00;101875.34;5008033;28;20037;-83
2022/04/16 06:34:30;;;;;;;10.52;2.00;;;;;;;7.22;100.00;101885.22;4963615;28;20397;-83
2022/04/16 06:36:55;;;;;;;8.95;1.95;;;;;;;7.32;100.00;101874.63;5007893;28;20463;-82
2022/04/16 06:39:21;;;;;;;8.63;2.25;;;;;;;7.49;100.00;101880.28;4979252;28;20499;-85
2022/04/16 06:41:47;;;;;;;10.85;3.10;;;;;;;7.61;100.00;101875.69;4990376;28;20411;-84
2022/04/16 06:44:12;;;;;;;11.75;3.30;;;;;;;7.77;100.00;101874.41;4996952;28;20480;-84
2022/04/16 06:46:38;;;;;;;10.45;3.85;;;;;;;7.88;100.00;101872.50;4989370;28;20038;-83
2022/04/16 06:49:03;;;;;;;10.07;3.00;;;;;;;8.05;100.00;101876.44;4956646;28;21422;-84
2022/04/16 06:51:32;;;;;;;17.23;2.92;;;;;;;8.15;100.00;101884.53;4956260;28;20042;-83
2022/04/16 06:53:58;;;;;;;12.45;2.65;;;;;;;8.33;100.00;101866.00;4985194;28;20120;-84
2022/04/16 06:56:23;;;;;;;14.27;3.67;;;;;;;8.36;100.00;101853.19;4999510;28;20180;-84
2022/04/16 06:58:49;;;;;;;6.05;2.63;;;;;;;8.58;100.00;101872.78;5004125;28;20169;-83
2022/04/16 07:01:15;;;;;;;8.15;2.05;;;;;;;8.69;100.00;101848.53;4992680;28;20041;-83
2022/04/16 07:03:40;;;;;;;15.70;6.82;;;;;;;9.11;100.00;101882.38;4974900;28;20496;-83
2022/04/16 07:06:06;;;;;;;18.33;5.20;;;;;;;9.27;100.00;101887.19;5009696;28;20036;-84
2022/04/16 07:08:31;;;;;;;12.07;5.13;;;;;;;9.39;100.00;101886.06;5003757;28;20030;-83
2022/04/16 07:10:57;;;;;;;10.10;3.97;;;;;;;9.20;100.00;101881.53;4972293;28;20033;-84
2022/04/16 07:13:22;;;;;;;18.00;4.82;;;;;;;9.32;100.00;101883.09;4977256;28;20504;-84
2022/04/16 07:15:48;;;;;;;6.97;2.55;;;;;;;9.16;100.00;101880.97;4979325;28;20034;-83
2022/04/16 07:18:13;;;;;;;12.55;2.50;;;;;;;9.07;100.00;101875.59;4992526;28;20044;-83
2022/04/16 07:20:40;;;;;;;12.73;2.78;;;;;;;9.16;100.00;101880.13;4986578;28;20052;-83
2022/04/16 07:23:06;;;;;;;8.98;2.33;;;;;;;9.15;100.00;101871.22;4991843;28;20168;-83
2022/04/16 07:25:33;;;;;;;9.05;2.97;;;;;;;9.16;100.00;101877.44;4990413;28;20029;-83
2022/04/16 07:27:59;;;;;;;9.07;2.08;;;;;;;9.32;100.00;101871.53;4978415;28;20445;-83
2022/04/16 07:30:24;;;;;;;10.20;3.00;;;;;;;9.89;100.00;101862.56;4989708;28;20037;-83
2022/04/16 07:32:51;;;;;;;11.65;3.03;;;;;;;10.33;100.00;101870.13;4989226;28;20384;-83
2022/04/16 07:35:16;;;;;;;5.53;2.20;;;;;;;10.68;100.00;101852.44;4990220;28;20026;-83
2022/04/16 07:37:42;;;;;;;14.93;3.83;;;;;;;11.10;100.00;101873.44;5004127;28;20037;-84
2022/04/16 07:40:08;;;;;;;12.82;2.78;;;;;;;12.45;98.58;101878.56;4988494;28;20022;-83
2022/04/16 07:42:34;;;;;;;6.20;2.63;;;;;;;12.57;97.99;101876.41;4980893;28;20038;-84
2022/04/16 07:45:00;;;;;;;8.15;2.42;;;;;;;13.17;95.55;101873.59;4983520;28;20034;-83
2022/04/16 07:47:25;;;;;;;15.00;2.97;;;;;;;13.58;90.33;101869.13;4992000;28;20026;-85
2022/04/16 07:49:53;;;;;;;12.27;3.13;;;;;;;13.76;91.91;101865.38;5014604;28;20026;-84
2022/04/16 07:52:19;;;;;;;7.20;2.35;;;;;;;14.64;87.00;101872.69;5019936;28;20033;-84
2022/04/16 07:54:44;;;;;;;11.80;3.08;;;;;;;15.76;80.98;101865.88;4972003;28;20043;-85
2022/04/16 07:57:13;;;;;;;11.85;2.95;;;;;;;15.89;80.45;101865.25;4981091;28;20029;-84
2022/04/16 07:59:39;;;;;;;8.98;2.42;;;;;;;15.72;79.88;101871.88;5003477;28;20875;-83
2022/04/16 08:02:04;;;;;;;7.10;2.58;;;;;;;15.25;82.37;101868.28;4974660;28;20124;-84
2022/04/16 08:04:30;;;;;;;6.88;3.60;;;;;;;15.16;81.64;101862.09;4974475;28;20808;-83
2022/04/16 08:06:56;;;;;;;11.68;3.45;;;;;;;15.49;81.40;101867.28;4962800;28;20030;-83
2022/04/16 08:09:21;;;;;;;8.73;5.35;;;;;;;16.38;75.36;101862.06;4976911;28;20057;-83
2022/04/16 08:11:47;;;;;;;11.93;3.50;;;;;;;15.83;77.60;101869.56;4967881;28;20168;-83
2022/04/16 08:14:13;;;;;;;10.35;2.03;;;;;;;15.39;77.94;101861.25;4993474;28;20022;-83
2022/04/16 08:16:39;;;;;;;10.80;4.00;;;;;;;14.84;81.36;101868.50;4977174;28;20490;-83
2022/04/16 08:19:04;;;;;;;4.63;2.10;;;;;;;14.37;83.66;101868.50;5003397;28;20034;-83
2022/04/16 08:21:32;;;;;;;8.85;2.70;;;;;;;14.72;84.19;101869.94;4974416;28;20025;-82
2022/04/16 08:24:12;;;;;;;3.35;1.67;;;;;;;14.91;80.02;101863.25;4984019;28;20033;-83
2022/04/16 08:26:51;;;;;;;15.52;3.60;;;;;;;14.46;84.98;101859.34;4993525;28;20072;-86
2022/04/16 08:29:17;;;;;;;7.50;2.38;;;;;;;14.05;84.96;101867.56;4988549;28;20034;-85
2022/04/16 08:31:43;;;;;;;10.82;2.55;;;;;;;13.33;88.23;101837.69;5001760;28;20117;-85
2022/04/16 08:34:09;;;;;;;7.03;2.60;;;;;;;13.32;92.39;101876.53;4991949;28;20121;-85
2022/04/16 08:36:34;;;;;;;7.65;2.38;;;;;;;13.09;93.40;101879.81;4987993;28;20053;-84
2022/04/16 08:39:00;;;;;;;8.90;2.33;;;;;;;12.87;91.54;101869.63;4950576;28;20025;-87
2022/04/16 08:41:26;;;;;;;6.13;1.55;;;;;;;12.93;92.09;101852.78;5003566;28;20022;-86
2022/04/16 08:43:53;;;;;;;8.88;2.70;;;;;;;13.92;89.18;101872.63;5008458;28;20053;-86
2022/04/16 08:46:18;;;;;;;6.35;2.13;;;;;;;14.50;83.56;101863.38;4991874;28;20568;-85
2022/04/16 08:48:44;;;;;;;7.75;2.28;;;;;;;14.77;82.16;101854.00;4985263;28;20057;-85
2022/04/16 08:51:11;;;;;;;11.40;2.90;;;;;;;16.09;76.37;101872.88;4967809;28;20021;-85
2022/04/16 08:53:37;;;;;;;3.65;1.83;;;;;;;16.61;72.01;101864.63;4993416;28;20125;-82
2022/04/16 08:56:03;;;;;;;6.50;2.88;;;;;;;16.92;70.53;101869.03;4975328;28;20124;-83
2022/04/16 08:58:29;;;;;;;4.90;1.88;;;;;;;18.33;62.74;101861.97;4984875;28;20029;-83
2022/04/16 09:00:56;;;;;;;5.65;1.52;;;;;;;18.19;60.89;101844.72;4986495;28;20034;-84
2022/04/16 09:03:30;;;;;;;5.43;1.75;;;;;;;17.49;62.40;101854.59;4998539;28;20115;-83
2022/04/16 09:06:00;;;;;;;3.75;1.50;;;;;;;17.46;64.74;101846.81;4999309;28;20038;-80
2022/04/16 09:08:29;;;;;;;6.85;1.90;;;;;;;17.24;63.53;101850.59;4977917;28;20041;-81
2022/04/16 09:11:07;;;;;;;3.58;1.30;;;;;;;16.10;70.11;101845.56;4962270;28;20046;-81
2022/04/16 09:13:33;;;;;;;7.47;1.75;;;;;;;15.58;70.59;101843.63;4991753;28;20034;-81
2022/04/16 09:16:08;;;;;;;7.57;1.55;;;;;;;15.07;73.59;101851.47;4997435;28;20482;-84
2022/04/16 09:18:53;;;;;;;3.63;1.60;;;;;;;14.52;78.11;101855.94;4980635;28;20464;-82
2022/04/16 09:21:20;;;;;;;7.40;1.80;;;;;;;14.66;77.19;101857.09;4971362;28;20911;-81
2022/04/16 09:23:52;;;;;;;4.57;1.85;;;;;;;14.78;76.91;101849.44;4994204;28;20038;-82
2022/04/16 09:26:44;;;;;;;9.48;2.08;;;;;;;15.47;78.05;101861.19;4973903;28;20038;-82
2022/04/16 09:29:12;;;;;;;4.47;1.20;;;;;;;15.74;71.25;101859.78;4975072;28;20744;-83
2022/04/16 09:31:39;;;;;;;7.30;1.75;;;;;;;15.88;70.77;101850.03;4976797;28;20439;-82
2022/04/16 09:34:06;;;;;;;2.17;1.20;;;;;;;15.72;72.02;101859.16;5003325;28;20103;-82
2022/04/16 09:36:38;;;;;;;4.75;2.50;;;;;;;15.65;73.00;101851.91;4973630;28;20034;-83
2022/04/16 09:39:07;;;;;;;8.40;2.35;;;;;;;15.41;73.38;101850.22;5013864;28;20041;-80
2022/04/16 09:41:41;;;;;;;7.68;2.08;;;;;;;14.99;74.59;101851.53;4983201;28;20030;-83
2022/04/16 09:44:20;;;;;;;;;;;;;;;14.71;80.30;101866.41;4963024;28;20042;-82
2022/04/16 09:46:47;;;;;;;6.47;1.88;;;;;;;14.67;78.16;101864.22;4995995;28;20294;-81
2022/04/16 09:49:13;;;;;;;4.47;2.40;;;;;;;14.62;75.77;101867.44;5003221;28;20030;-80
2022/04/16 09:51:41;;;;;;;6.07;1.70;;;;;;;14.73;77.05;101856.22;4979080;28;20033;-80
2022/04/16 09:54:07;;;;;;;8.40;1.98;;;;;;;14.85;75.34;101863.97;4971596;28;20087;-80
2022/04/16 09:56:35;;;;;;;4.75;2.45;;;;;;;14.78;74.16;101849.44;4991624;28;20026;-80
2022/04/16 09:59:04;;;;;;;3.70;1.65;;;;;;;14.98;74.66;101839.00;4981887;28;20034;-80
2022/04/16 10:01:31;;;;;;;9.80;1.83;;;;;;;15.26;72.60;101850.16;4994446;28;20034;-81
2022/04/16 10:03:57;;;;;;;3.97;1.80;;;;;;;15.81;71.19;101859.91;4996303;28;20474;-80
2022/04/16 10:06:23;;;;;;;5.18;1.73;;;;;;;16.23;64.75;101842.19;4995495;28;20034;-80
2022/04/16 10:08:51;;;;;;;6.50;2.05;;;;;;;16.68;65.07;101845.72;5004631;28;20041;-80
2022/04/16 10:11:32;;;;;;;6.95;1.92;;;;;;;16.42;63.37;101838.06;4978315;28;20554;-80
2022/04/16 10:14:03;;;;;;;5.18;1.52;;;;;;;16.21;63.43;101836.13;4993467;28;20076;-80
2022/04/16 10:16:58;;;;;;;7.90;2.40;;;;;;;16.27;61.95;101829.94;4994795;28;20066;-80
2022/04/16 10:19:23;;;;;;;9.50;2.38;;;;;;;16.04;61.86;101821.91;4938512;28;20444;-81
2022/04/16 10:21:53;;;;;;;5.32;1.80;;;;;;;15.98;61.35;101836.19;4963905;28;20038;-80
2022/04/16 10:24:26;;;;;;;10.55;1.95;;;;;;;15.94;62.32;101841.16;4978977;28;20041;-80
2022/04/16 10:27:02;;;;;;;3.42;1.35;;;;;;;15.80;62.64;101847.41;5006861;28;20029;-80
2022/04/16 10:29:34;;;;;;;6.93;1.70;;;;;;;15.56;62.95;101843.84;4996641;28;20062;-79
2022/04/16 10:31:59;;;;;;;6.65;1.90;;;;;;;15.53;63.95;101841.50;4968630;28;20049;-81
2022/04/16 10:34:30;;;;;;;4.43;1.50;;;;;;;15.28;64.21;101845.41;5011534;28;20038;-79
2022/04/16 10:36:55;;;;;;;8.40;1.80;;;;;;;14.95;65.19;101822.09;5002920;28;20141;-80
2022/04/16 10:39:29;;;;;;;8.73;3.72;;;;;;;14.98;65.79;101844.41;4995364;28;20021;-80
2022/04/16 10:41:59;;;;;;;5.10;1.45;;;;;;;14.94;65.44;101849.34;4977272;28;20487;-80
2022/04/16 10:44:26;;;;;;;6.35;3.08;;;;;;;14.91;65.34;101837.00;4978629;28;20104;-80
2022/04/16 10:46:53;;;;;;;6.07;2.17;;;;;;;15.01;64.53;101844.06;5001544;28;20514;-80
2022/04/16 10:49:20;;;;;;;6.78;2.45;;;;;;;14.96;64.01;101841.88;4994145;28;20464;-79
2022/04/16 10:51:46;;;;;;;9.60;5.43;;;;;;;14.94;64.34;101836.63;4963745;28;20391;-80
2022/04/16 10:54:27;;;;;;;5.32;1.75;;;;;;;15.06;63.37;101830.84;4992614;28;20513;-79
2022/04/16 10:56:54;;;;;;;9.40;4.18;;;;;;;15.31;63.60;101831.50;4969053;28;20034;-80
2022/04/16 10:59:43;;;;;;;5.95;2.92;;;;;;;15.49;62.49;101823.06;5010149;28;20169;-79
2022/04/16 11:02:23;;;;;;;9.48;2.80;;;;;;;16.32;59.66;101837.50;4962474;28;20107;-80
2022/04/16 11:04:59;;;;;;;7.05;2.05;;;;;;;16.59;59.11;101845.00;4969167;28;20042;-79
2022/04/16 11:07:26;;;;;;;4.10;1.50;;;;;;;16.81;58.36;101837.78;4990520;28;20072;-79
2022/04/16 11:09:52;;;;;;;2.53;1.25;;;;;;;16.84;57.44;101837.41;4998297;28;20495;-80
2022/04/16 11:12:22;;;;;;;3.25;1.10;;;;;;;16.89;55.90;101829.50;4984552;28;20107;-80
2022/04/16 11:14:54;;;;;;;3.33;1.13;;;;;;;16.64;57.00;101845.25;4962671;28;20048;-79
2022/04/16 11:17:19;;;;;;;4.03;1.67;;;;;;;16.55;56.76;101830.09;4972132;28;20117;-79
2022/04/16 11:19:47;;;;;;;6.45;2.00;;;;;;;16.54;57.47;101833.00;5001465;28;20040;-79
2022/04/16 11:22:13;;;;;;;3.60;1.30;;;;;;;16.59;56.73;101838.72;4981676;28;20542;-80
2022/04/16 11:24:39;;;;;;;2.47;1.50;;;;;;;17.24;54.50;101835.09;5011540;28;20034;-80
2022/04/16 11:35:23;;;;;;;3.70;2.00;;;;;;;18.20;50.87;101829.22;5009813;28;20476;-79
2022/04/16 11:37:56;;;;;;;3.22;1.40;;;;;;;18.07;51.26;101826.41;4998180;28;20398;-79
2022/04/16 11:40:22;;;;;;;4.63;1.88;;;;;;;18.35;49.80;101834.53;4994150;28;20065;-80
2022/04/16 11:42:49;;;;;;;4.72;1.50;;;;;;;17.86;50.83;101835.47;5008664;28;20045;-80
2022/04/16 11:45:15;;;;;;;8.60;1.92;;;;;;;17.49;51.77;101785.75;5006335;28;20026;-80